Data for 01/29/2005

Time Sea-Level Adjusted Pressure Absolute Pressure Temperature Relative Humidity Dew Point   
(mb) (inHg) (mb) (inHg) (C) (F) (%) (C) (F)
00:05 1018 30.06 847 25.01 1.8 35.2 75 -2.3 27.9
00:10 1018 30.06 847 25.01 1.7 35.1 75 -2.3 27.8
00:15 1018 30.06 847 25.01 1.7 35.1 75 -2.2 28
00:20 1018 30.06 847 25.01 1.6 34.8 75 -2.4 27.8
00:25 1018 30.06 847 25.01 1.5 34.7 75 -2.4 27.7
00:30 1018 30.06 847 25.01 1.3 34.4 77 -2.3 27.8
00:35 1018 30.06 847 25.01 1 33.9 77 -2.5 27.5
00:40 1018 30.06 847 25.01 1.2 34.1 77 -2.5 27.5
00:45 1018 30.06 847 25.01 1 33.8 78 -2.4 27.7
00:50 1018 30.06 847 25.01 0.8 33.4 78 -2.6 27.4
00:55 1018 30.06 847 25.01 0.7 33.3 78 -2.7 27.1
01:00 1018 30.06 847 25.01 1.1 33.9 75 -2.9 26.8
01:05 1018 30.06 847 25.01 1.5 34.8 72 -3 26.7
01:10 1018 30.06 847 25.01 1.9 35.4 71 -2.8 26.9
01:15 1018 30.06 847 25.01 2 35.7 70 -2.9 26.8
01:20 1018 30.06 847 25.01 1.9 35.4 71 -2.9 26.8
01:25 1018 30.06 847 25.01 1.8 35.2 71 -2.9 26.8
01:30 1018 30.06 847 25.01 1.8 35.2 71 -2.9 26.8
01:35 1018 30.06 847 25.01 1.6 34.9 72 -2.9 26.8
01:40 1018 30.06 847 25.01 1.3 34.3 73 -3 26.6
01:45 1018 30.06 847 25.01 1.2 34.1 73 -3.2 26.3
01:50 1018 30.06 847 25.01 1.4 34.5 72 -3.1 26.4
01:55 1018 30.06 847 25.01 1.3 34.4 73 -3 26.6
02:00 1018 30.06 847 25.01 1.4 34.4 72 -3.2 26.2
02:05 1018 30.06 847 25.01 1.5 34.6 71 -3.2 26.3
02:10 1018 30.06 847 25.01 1.3 34.3 74 -3 26.7
02:15 1018 30.06 847 25.01 1 33.8 73 -3.2 26.2
02:20 1018 30.06 847 25.01 0.8 33.4 75 -3.2 26.3
02:25 1018 30.06 847 25.01 0.7 33.3 74 -3.4 25.9
02:30 1018 30.06 847 25.01 0.8 33.4 73 -3.5 25.8
02:35 1018 30.06 847 25.01 0.8 33.4 73 -3.5 25.8
02:40 1018 30.06 847 25.01 1 33.8 73 -3.3 26.1
02:45 1018 30.06 847 25.01 0.7 33.3 75 -3.2 26.3
02:50 1018 30.06 847 25.01 0.6 33.1 75 -3.3 26.1
02:55 1018 30.06 847 25.01 0.7 33.2 75 -3.2 26.3
03:00 1018 30.06 847 25.01 0.7 33.3 75 -3.2 26.3
03:05 1018 30.06 847 25.01 0.6 33.1 76 -3.2 26.3
03:10 1018 30.06 847 25.01 0.5 32.9 76 -3.2 26.2
03:15 1018 30.06 847 25.01 0.5 32.9 76 -3.2 26.2
03:20 1018 30.06 847 25.01 0.4 32.8 75 -3.4 25.8
03:25 1018 30.06 847 25.01 0.5 32.9 75 -3.3 26
03:30 1018 30.06 847 25.01 0.4 32.7 75 -3.5 25.7
03:35 1018 30.06 847 25.01 0.6 33.1 74 -3.6 25.6
03:40 1018 30.06 847 25.01 0.9 33.5 72 -3.6 25.6
03:45 1018 30.06 847 25.01 0.9 33.6 73 -3.5 25.8
03:50 1018 30.06 847 25.01 0.9 33.7 72 -3.6 25.5
03:55 1018 30.06 847 25.01 0.8 33.4 73 -3.5 25.7
04:00 1018 30.06 847 25.01 0.7 33.2 73 -3.6 25.5
04:05 1018 30.06 847 25.01 0.8 33.4 71 -3.9 25.1
04:10 1018 30.06 847 25.01 0.8 33.4 72 -3.7 25.3
04:15 1018 30.06 847 25.01 0.7 33.2 72 -3.8 25.2
04:20 1018 30.06 847 25.01 0.7 33.3 73 -3.6 25.5
04:25 1018 30.06 847 25.01 0.4 32.7 74 -3.7 25.3
04:30 1018 30.06 847 25.01 0.4 32.7 73 -3.8 25.1
04:35 1018 30.06 847 25.01 0.3 32.6 74 -3.8 25.2
04:40 1018 30.06 847 25.01 0.1 32.2 75 -3.8 25.2
04:45 1018 30.06 847 25.01 -0.1 31.8 76 -3.9 25
04:50 1018 30.06 847 25.01 -0.3 31.5 76 -4 24.8
04:55 1018 30.06 847 25.01 -0.3 31.5 76 -4 24.8
05:00 1018 30.06 847 25.01 -0.5 31.2 77 -4 24.7
05:05 1018 30.06 847 25.01 -0.4 31.2 77 -4.1 24.7
05:10 1018 30.06 847 25.01 -0.4 31.3 76 -4.1 24.7
05:15 1018 30.06 847 25.01 -0.5 31 77 -4.1 24.5
05:20 1018 30.06 847 25.01 -0.5 31.1 77 -4.1 24.6
05:25 1018 30.06 847 25.01 -0.5 31.2 76 -4.2 24.5
05:30 1018 30.06 847 25.01 -0.5 31.2 76 -4.1 24.6
05:35 1018 30.06 847 25.01 -0.7 30.8 77 -4.2 24.4
05:40 1018 30.06 847 25.01 -0.8 30.5 78 -4.2 24.4
05:45 1018 30.06 847 25.01 -1 30.2 78 -4.3 24.2
05:50 1018 30.06 847 25.01 -0.8 30.5 76 -4.5 24
05:55 1018 30.06 847 25.01 -0.5 31 75 -4.4 24
06:00 1018 30.06 847 25.01 -0.5 31.1 74 -4.5 23.9
06:05 1018 30.06 847 25.01 -0.4 31.3 74 -4.5 23.9
06:10 1018 30.06 847 25.01 -0.2 31.7 72 -4.6 23.8
06:15 1018 30.06 847 25.01 0 32.1 72 -4.4 24.1
06:20 1018 30.06 847 25.01 -0.3 31.4 74 -4.3 24.2
06:25 1018 30.06 847 25.01 -0.5 31.1 75 -4.4 24.1
06:30 1018 30.06 847 25.01 -0.4 31.4 74 -4.5 23.9
06:35 1018 30.06 847 25.01 -0.2 31.6 73 -4.5 23.9
06:40 1018 30.06 847 25.01 -0.1 31.9 72 -4.4 24
06:45 1018 30.06 848 25.04 -0.2 31.7 73 -4.4 24
06:50 1018 30.06 848 25.04 -0.3 31.5 73 -4.4 24
06:55 1018 30.06 848 25.04 -0.1 31.8 72 -4.5 23.9
07:00 1018 30.06 848 25.04 -0.1 31.8 73 -4.5 24
07:05 1019 30.09 848 25.04 -0.3 31.5 73 -4.6 23.8
07:10 1019 30.09 848 25.04 -0.1 31.7 72 -4.6 23.8
07:15 1019 30.09 848 25.04 -0.4 31.3 73 -4.6 23.8
07:20 1019 30.09 848 25.04 -0.7 30.7 74 -4.7 23.5
07:25 1019 30.09 848 25.04 -1.1 30 76 -4.8 23.3
07:30 1019 30.09 848 25.04 -1.1 30.1 75 -5 23
07:35 1019 30.09 848 25.04 -0.9 30.3 74 -5 22.9
07:40 1019 30.09 848 25.04 -0.9 30.4 74 -5 23
07:45 1019 30.09 848 25.04 -0.7 30.8 72 -5 22.9
07:50 1019 30.09 848 25.04 -0.3 31.4 71 -5 23
07:55 1019 30.09 848 25.04 -0.8 30.6 75 -4.7 23.5
08:00 1019 30.09 848 25.04 -0.9 30.4 75 -4.7 23.5
08:05 1019 30.09 848 25.04 -1.2 29.8 77 -4.7 23.5
08:10 1019 30.09 848 25.04 -1.2 29.8 77 -4.7 23.5
08:15 1019 30.09 848 25.04 -1.2 29.8 77 -4.7 23.6
08:20 1019 30.09 848 25.04 -1.1 30.1 76 -4.7 23.5
08:25 1019 30.09 848 25.04 -1.2 29.9 77 -4.6 23.7
08:30 1019 30.09 848 25.04 -1.4 29.5 78 -4.7 23.5
08:35 1019 30.09 848 25.04 -1 30.1 75 -4.8 23.3
08:40 1019 30.09 848 25.04 -0.6 31 74 -4.7 23.5
08:45 1019 30.09 848 25.04 -0.2 31.7 72 -4.7 23.6
08:50 1019 30.09 849 25.07 0.3 32.6 69 -4.7 23.6
08:55 1019 30.09 849 25.07 0.8 33.4 68 -4.5 23.9
09:00 1019 30.09 849 25.07 1.1 33.9 67 -4.4 24.1
09:05 1019 30.09 849 25.07 1.3 34.3 67 -4.3 24.3
09:10 1019 30.09 849 25.07 1.3 34.3 68 -4.1 24.7
09:15 1019 30.09 849 25.07 1.2 34.1 68 -4 24.7
09:20 1020 30.12 849 25.07 1.6 34.8 66 -4.1 24.7
09:25 1020 30.12 849 25.07 2.1 35.7 64 -4.1 24.7
09:30 1020 30.12 849 25.07 2.2 36 65 -3.7 25.3
09:35 1020 30.12 849 25.07 2.5 36.6 64 -3.6 25.6
09:40 1020 30.12 849 25.07 2.2 36 65 -3.7 25.4
09:45 1020 30.12 849 25.07 2.4 36.4 65 -3.6 25.5
09:50 1020 30.12 849 25.07 2.6 36.7 63 -3.8 25.2
09:55 1020 30.12 849 25.07 2.9 37.2 63 -3.6 25.6
10:00 1020 30.12 849 25.07 3.5 38.3 59 -3.7 25.3
10:05 1020 30.12 849 25.07 4.3 39.7 57 -3.4 25.9
10:10 1020 30.12 849 25.07 4.6 40.4 55 -3.5 25.7
10:15 1020 30.12 849 25.07 4.8 40.7 56 -3.2 26.2
10:20 1020 30.12 849 25.07 4.5 40.1 57 -3.2 26.2
10:25 1020 30.12 849 25.07 4.5 40.1 56 -3.5 25.7
10:30 1020 30.12 849 25.07 5 41 55 -3.3 26.1
10:35 1020 30.12 849 25.07 4.8 40.7 55 -3.4 25.9
10:40 1020 30.12 849 25.07 4.6 40.3 56 -3.5 25.8
10:45 1020 30.12 849 25.07 4.4 40 56 -3.5 25.7
10:50 1020 30.12 849 25.07 4.5 40.1 56 -3.5 25.7
10:55 1020 30.12 849 25.07 4.9 40.8 55 -3.5 25.7
11:00 1020 30.12 849 25.07 5.2 41.4 54 -3.3 26.1
11:05 1020 30.12 849 25.07 4.9 40.8 57 -2.8 26.9
11:10 1020 30.12 849 25.07 4.2 39.6 59 -3.2 26.3
11:15 1020 30.12 849 25.07 4.5 40 60 -2.7 27.2
11:20 1020 30.12 849 25.07 4.7 40.4 58 -3 26.7
11:25 1020 30.12 849 25.07 5.1 41.1 55 -3.2 26.3
11:30 1020 30.12 849 25.07 5.5 41.8 53 -3.4 25.8
11:35 1020 30.12 849 25.07 5.5 41.9 54 -3.1 26.5
11:40 1020 30.12 849 25.07 5.5 41.9 57 -2.3 27.8
11:45 1020 30.12 849 25.07 5.4 41.7 58 -2.1 28.3
11:50 1020 30.12 849 25.07 5.1 41.2 62 -1.6 29.1
11:55 1020 30.12 849 25.07 5.1 41.1 62 -1.6 29
12:00 1020 30.12 849 25.07 5.1 41.1 62 -1.7 28.9
12:05 1020 30.12 849 25.07 4.8 40.7 63 -1.6 29.1
12:10 1020 30.12 849 25.07 4.7 40.5 63 -1.7 29
12:15 1020 30.12 849 25.07 4.8 40.7 63 -1.6 29
12:20 1020 30.12 849 25.07 5 41 63 -1.4 29.4
12:25 1019 30.09 849 25.07 5.2 41.3 63 -1.4 29.5
12:30 1019 30.09 849 25.07 5.2 41.4 63 -1.3 29.6
12:35 1019 30.09 849 25.07 5.2 41.3 63 -1.2 29.8
12:40 1019 30.09 849 25.07 5.3 41.5 62 -1.5 29.3
12:45 1019 30.09 848 25.04 5.5 41.9 61 -1.4 29.4
12:50 1019 30.09 848 25.04 5.7 42.3 60 -1.5 29.3
12:55 1019 30.09 848 25.04 6 42.8 59 -1.3 29.6
13:00 1019 30.09 848 25.04 5.8 42.4 58 -1.8 28.8
13:05 1019 30.09 848 25.04 6 42.8 55 -2.3 27.9
13:10 1019 30.09 848 25.04 6.1 42.9 55 -2.2 28.1
13:15 1019 30.09 848 25.04 5.6 42.2 58 -2 28.4
13:20 1019 30.09 848 25.04 5.8 42.4 58 -1.8 28.8
13:25 1019 30.09 848 25.04 5.8 42.4 59 -1.5 29.2
13:30 1019 30.09 848 25.04 5.8 42.5 59 -1.5 29.2
13:35 1019 30.09 848 25.04 6.1 43 57 -1.7 28.9
13:40 1019 30.09 848 25.04 6.4 43.4 55 -1.9 28.6
13:45 1019 30.09 848 25.04 6.3 43.4 56 -1.8 28.7
13:50 1019 30.09 848 25.04 6.6 43.8 52 -2.6 27.4
13:55 1019 30.09 848 25.04 6.7 44.1 53 -2.2 28
14:00 1019 30.09 848 25.04 6.9 44.4 52 -2.3 27.9
14:05 1019 30.09 848 25.04 7.3 45.1 52 -2 28.4
14:10 1019 30.09 848 25.04 7.2 45 51 -2.2 28.1
14:15 1019 30.09 848 25.04 7.3 45.2 51 -2.2 28
14:20 1019 30.09 848 25.04 7.3 45.1 51 -2.2 28
14:25 1019 30.09 848 25.04 7.5 45.5 51 -2.1 28.3
14:30 1019 30.09 848 25.04 8.2 46.7 49 -2 28.4
14:35 1019 30.09 848 25.04 8.5 47.4 49 -1.7 29
14:40 1019 30.09 848 25.04 8.7 47.7 47 -2 28.4
14:45 1019 30.09 848 25.04 8.5 47.3 48 -1.9 28.6
14:50 1019 30.09 848 25.04 8.8 47.8 47 -2 28.4
14:55 1019 30.09 848 25.04 7.9 46.2 49 -2.1 28.2
15:00 1019 30.09 848 25.04 8.1 46.6 47 -2.5 27.5
15:05 1019 30.09 848 25.04 7.5 45.5 50 -2.3 27.9
15:10 1019 30.09 848 25.04 7.2 44.9 52 -2 28.3
15:15 1019 30.09 848 25.04 6.8 44.2 54 -2 28.4
15:20 1019 30.09 848 25.04 6.6 43.9 55 -1.8 28.7
15:25 1019 30.09 848 25.04 6.3 43.3 56 -1.8 28.7
15:30 1019 30.09 848 25.04 5.9 42.7 58 -1.7 28.9
15:35 1019 30.09 848 25.04 5.9 42.5 57 -1.9 28.5
15:40 1019 30.09 848 25.04 5.7 42.3 57 -2 28.4
15:45 1019 30.09 848 25.04 5.7 42.2 58 -1.9 28.6
15:50 1019 30.09 848 25.04 5.6 42.2 58 -2.1 28.3
15:55 1019 30.09 848 25.04 5.7 42.2 57 -2.1 28.3
16:00 1019 30.09 848 25.04 5.7 42.3 57 -2 28.4
16:05 1019 30.09 848 25.04 5.7 42.3 57 -2 28.4
16:10 1019 30.09 848 25.04 6 42.8 55 -2.3 27.9
16:15 1019 30.09 848 25.04 6.4 43.6 52 -2.6 27.3
16:20 1019 30.09 848 25.04 6.2 43.1 55 -2.2 28
16:25 1019 30.09 849 25.07 6 42.7 55 -2.4 27.7
16:30 1019 30.09 849 25.07 6 42.8 55 -2.3 27.8
16:35 1019 30.09 849 25.07 6 42.8 54 -2.5 27.6
16:40 1019 30.09 849 25.07 5.8 42.4 56 -2.4 27.6
16:45 1019 30.09 849 25.07 5.5 41.9 57 -2.4 27.7
16:50 1019 30.09 849 25.07 5.8 42.4 55 -2.6 27.3
16:55 1020 30.12 849 25.07 6.2 43.2 54 -2.4 27.6
17:00 1020 30.12 849 25.07 6 42.8 56 -2.2 28.1
17:05 1020 30.12 849 25.07 5.6 42 57 -2.2 28.1
17:10 1020 30.12 849 25.07 5.3 41.6 58 -2.3 27.9
17:15 1020 30.12 849 25.07 5.2 41.4 58 -2.3 27.9
17:20 1020 30.12 849 25.07 5.2 41.4 58 -2.3 27.9
17:25 1020 30.12 849 25.07 5.1 41.2 59 -2.2 28
17:30 1020 30.12 849 25.07 5 41.1 59 -2.2 28
17:35 1020 30.12 849 25.07 4.9 40.8 61 -2.1 28.2
17:40 1020 30.12 849 25.07 4.8 40.6 61 -2.1 28.2
17:45 1020 30.12 849 25.07 4.6 40.3 61 -2.2 28
17:50 1020 30.12 849 25.07 4.6 40.2 62 -2.2 28.1
17:55 1020 30.12 849 25.07 4.5 40.1 62 -2.2 28
18:00 1020 30.12 849 25.07 4.3 39.7 63 -2.1 28.2
18:05 1020 30.12 849 25.07 4.1 39.4 64 -2.1 28.3
18:10 1020 30.12 849 25.07 4 39.1 65 -2 28.4
18:15 1020 30.12 849 25.07 3.9 39.1 66 -1.9 28.6
18:20 1020 30.12 849 25.07 3.4 38.2 69 -1.8 28.8
18:25 1020 30.12 849 25.07 3.1 37.5 69 -2.1 28.3
18:30 1020 30.12 849 25.07 3.4 38 68 -1.9 28.5
18:35 1020 30.12 849 25.07 3.3 38 69 -1.9 28.6
18:40 1020 30.12 849 25.07 3.1 37.6 70 -1.8 28.8
18:45 1020 30.12 849 25.07 2.9 37.1 71 -2 28.5
18:50 1020 30.12 849 25.07 2.9 37.2 71 -1.8 28.7
18:55 1020 30.12 849 25.07 2.8 37.1 71 -1.8 28.7
19:00 1020 30.12 849 25.07 2.7 36.8 73 -1.8 28.8
19:05 1020 30.12 849 25.07 2.5 36.5 73 -1.8 28.7
19:10 1020 30.12 849 25.07 2.5 36.5 72 -2 28.4
19:15 1020 30.12 850 25.1 2.5 36.5 72 -2 28.3
19:20 1020 30.12 850 25.1 2.2 36 74 -1.9 28.6
19:25 1020 30.12 850 25.1 2 35.6 75 -2 28.4
19:30 1020 30.12 850 25.1 1.9 35.5 75 -2 28.3
19:35 1020 30.12 850 25.1 2 35.5 75 -2.1 28.3
19:40 1020 30.12 850 25.1 2 35.6 74 -2.1 28.2
19:45 1020 30.12 850 25.1 1.9 35.4 75 -2.1 28.3
19:50 1020 30.12 850 25.1 2 35.6 75 -2 28.4
19:55 1020 30.12 850 25.1 2.1 35.8 74 -2.1 28.3
20:00 1020 30.12 850 25.1 2.3 36.1 73 -2.1 28.2
20:05 1020 30.12 850 25.1 2.3 36.2 73 -2.1 28.3
20:10 1020 30.12 850 25.1 2.2 35.9 74 -2 28.4
20:15 1020 30.12 850 25.1 2.2 35.9 74 -2.1 28.3
20:20 1020 30.12 850 25.1 2.1 35.8 74 -2 28.4
20:25 1020 30.12 850 25.1 2.1 35.7 75 -1.9 28.6
20:30 1021 30.15 850 25.1 2 35.6 76 -1.8 28.8
20:35 1021 30.15 850 25.1 2.2 35.9 76 -1.6 29.1
20:40 1021 30.15 850 25.1 2.3 36.1 75 -1.7 29
20:45 1021 30.15 850 25.1 2.6 36.7 73 -1.7 28.9
20:50 1021 30.15 850 25.1 2.9 37.2 71 -1.8 28.8
20:55 1021 30.15 850 25.1 3 37.4 71 -1.8 28.8
21:00 1021 30.15 850 25.1 3.1 37.5 71 -1.7 28.9
21:05 1021 30.15 850 25.1 3 37.4 72 -1.6 29
21:10 1021 30.15 850 25.1 2.9 37.2 73 -1.5 29.2
21:15 1021 30.15 850 25.1 2.8 37 73 -1.6 29.1
21:20 1021 30.15 850 25.1 2.8 37 73 -1.5 29.3
21:25 1021 30.15 850 25.1 2.7 36.9 74 -1.5 29.3
21:30 1021 30.15 850 25.1 2.6 36.7 75 -1.4 29.4
21:35 1021 30.15 850 25.1 2.5 36.5 75 -1.5 29.3
21:40 1021 30.15 850 25.1 2.6 36.6 75 -1.4 29.4
21:45 1021 30.15 850 25.1 2.5 36.5 77 -1.2 29.8
21:50 1021 30.15 850 25.1 2.1 35.8 80 -1.1 30.1
21:55 1021 30.15 850 25.1 2 35.5 82 -0.9 30.4
22:00 1021 30.15 850 25.1 2 35.5 83 -0.6 30.9
22:05 1021 30.15 850 25.1 1.9 35.4 85 -0.3 31.4
22:10 1021 30.15 850 25.1 1.7 35 86 -0.5 31.1
22:15 1021 30.15 850 25.1 1.5 34.8 85 -0.7 30.7
22:20 1021 30.15 850 25.1 1.6 34.9 85 -0.7 30.7
22:25 1021 30.15 850 25.1 1.6 34.9 83 -1 30.3
22:30 1021 30.15 850 25.1 1.9 35.4 81 -1 30.2
22:35 1021 30.15 850 25.1 2 35.6 82 -0.7 30.7
22:40 1021 30.15 850 25.1 1.8 35.2 83 -0.8 30.6
22:45 1021 30.15 850 25.1 1.9 35.4 82 -0.8 30.5
22:50 1021 30.15 850 25.1 1.9 35.4 83 -0.6 30.9
22:55 1021 30.15 850 25.1 1.6 34.9 84 -0.7 30.7
23:00 1021 30.15 850 25.1 1.6 34.9 84 -0.7 30.7
23:05 1021 30.15 850 25.1 1.6 34.8 84 -0.8 30.5
23:10 1021 30.15 850 25.1 1.8 35.2 82 -1 30.2
23:15 1021 30.15 850 25.1 2 35.7 81 -0.9 30.4
23:20 1021 30.15 850 25.1 2.1 35.9 80 -0.9 30.3
23:25 1021 30.15 850 25.1 2.2 35.9 80 -0.9 30.3
23:30 1021 30.15 850 25.1 2 35.6 80 -1 30.1
23:35 1021 30.15 850 25.1 2 35.5 80 -1.1 30
23:40 1021 30.15 850 25.1 1.9 35.4 81 -1 30.2
23:45 1021 30.15 850 25.1 1.8 35.2 80 -1.2 29.8
23:50 1021 30.15 850 25.1 1.9 35.4 79 -1.3 29.7
23:55 1021 30.15 850 25.1 2 35.5 79 -1.3 29.7
24:00 1021 30.15 850 25.1 1.9 35.5 79 -1.3 29.6